createdAt,value
2019-03-31T00:01:29.598Z,6.90
2019-03-31T00:03:57.821Z,6.90
2019-03-31T00:06:26.052Z,6.90
2019-03-31T00:08:54.285Z,6.80
2019-03-31T00:11:22.532Z,6.70
2019-03-31T00:13:50.791Z,6.70
2019-03-31T00:16:19.016Z,6.70
2019-03-31T00:18:47.253Z,6.60
2019-03-31T00:21:15.539Z,6.70
2019-03-31T00:23:43.779Z,6.60
2019-03-31T00:26:12.018Z,6.50
2019-03-31T00:28:40.266Z,6.60
2019-03-31T00:31:21.181Z,6.50
2019-03-31T00:33:38.516Z,6.50
2019-03-31T00:36:06.748Z,6.40
2019-03-31T00:38:34.977Z,6.50
2019-03-31T00:41:03.204Z,6.30
2019-03-31T00:43:31.619Z,6.30
2019-03-31T00:45:59.846Z,6.30
2019-03-31T00:48:28.102Z,6.30
2019-03-31T00:50:56.342Z,6.20
2019-03-31T00:53:24.579Z,6.20
2019-03-31T00:55:52.816Z,6.10
2019-03-31T00:58:21.043Z,6.10
2019-03-31T01:00:50.924Z,5.90
2019-03-31T01:03:19.394Z,5.80
2019-03-31T01:05:47.633Z,5.80
2019-03-31T01:08:16.136Z,5.60
2019-03-31T01:10:44.356Z,5.50
2019-03-31T01:13:12.593Z,5.40
2019-03-31T01:15:40.826Z,5.40
2019-03-31T01:18:09.060Z,5.40
2019-03-31T01:20:37.475Z,5.30
2019-03-31T01:23:06.682Z,5.30
2019-03-31T01:25:34.920Z,5.40
2019-03-31T01:28:03.153Z,5.40
2019-03-31T01:30:31.380Z,5.50
2019-03-31T01:32:59.989Z,5.50
2019-03-31T01:35:28.724Z,5.50
2019-03-31T01:37:56.983Z,5.50
2019-03-31T01:40:25.381Z,5.70
2019-03-31T01:42:53.618Z,5.70
2019-03-31T01:45:21.849Z,5.70
2019-03-31T01:47:50.115Z,5.90
2019-03-31T01:50:18.600Z,5.90
2019-03-31T01:52:46.845Z,6.00
2019-03-31T01:55:15.074Z,6.00
2019-03-31T01:57:43.302Z,6.10
2019-03-31T02:00:29.445Z,5.90
2019-03-31T02:02:57.751Z,6.00
2019-03-31T02:05:25.994Z,6.00
2019-03-31T02:07:54.226Z,6.00
2019-03-31T02:10:22.461Z,6.00
2019-03-31T02:12:50.752Z,6.00
2019-03-31T02:15:18.988Z,6.00
2019-03-31T02:17:47.208Z,5.90
2019-03-31T02:20:15.438Z,5.80
2019-03-31T02:22:43.680Z,5.70
2019-03-31T02:25:11.910Z,5.70
2019-03-31T02:27:40.178Z,5.80
2019-03-31T02:30:08.405Z,5.80
2019-03-31T02:32:36.635Z,5.80
2019-03-31T02:35:05.521Z,5.70
2019-03-31T02:37:33.744Z,5.70
2019-03-31T02:40:01.994Z,5.50
2019-03-31T02:42:30.235Z,5.50
2019-03-31T02:44:58.521Z,5.50
2019-03-31T02:47:26.761Z,5.70
2019-03-31T02:49:54.983Z,5.70
2019-03-31T02:52:23.225Z,5.80
2019-03-31T02:54:51.444Z,5.80
2019-03-31T02:57:20.914Z,5.70
2019-03-31T02:59:50.328Z,5.70
2019-03-31T03:02:18.544Z,5.70
2019-03-31T03:04:46.775Z,5.80
2019-03-31T03:07:15.002Z,5.90
2019-03-31T03:09:43.277Z,5.90
2019-03-31T03:12:11.522Z,6.00
2019-03-31T03:14:39.748Z,5.90
2019-03-31T03:17:07.978Z,5.90
2019-03-31T03:19:36.209Z,5.90
2019-03-31T03:22:04.442Z,5.80
2019-03-31T03:24:32.688Z,5.80
2019-03-31T03:27:00.905Z,5.60
2019-03-31T03:29:29.140Z,5.60
2019-03-31T03:31:57.409Z,5.60
2019-03-31T03:34:25.783Z,5.60
2019-03-31T03:36:54.020Z,5.50
2019-03-31T03:39:22.251Z,5.40
2019-03-31T03:41:50.472Z,5.30
2019-03-31T03:44:18.714Z,5.30
2019-03-31T03:46:46.930Z,5.30
2019-03-31T03:49:15.231Z,5.20
2019-03-31T03:51:43.678Z,5.20
2019-03-31T03:54:11.927Z,5.10
2019-03-31T03:56:40.226Z,5.10
2019-03-31T03:59:08.445Z,5.10
2019-03-31T04:01:36.749Z,5.10
2019-03-31T04:04:05.131Z,5.10
2019-03-31T04:06:33.384Z,5.00
2019-03-31T04:09:01.615Z,4.90
2019-03-31T04:11:29.833Z,4.90
2019-03-31T04:13:58.081Z,5.00
2019-03-31T04:16:26.332Z,4.90
2019-03-31T04:18:54.565Z,4.90
2019-03-31T04:21:22.793Z,4.80
2019-03-31T04:23:51.018Z,4.80
2019-03-31T04:26:19.269Z,4.70
2019-03-31T04:28:47.549Z,4.60
2019-03-31T04:31:15.889Z,4.40
2019-03-31T04:33:51.529Z,4.40
2019-03-31T04:36:14.077Z,4.30
2019-03-31T04:38:42.351Z,4.40
2019-03-31T04:41:10.584Z,4.40
2019-03-31T04:43:38.885Z,4.10
2019-03-31T04:46:07.106Z,4.10
2019-03-31T04:48:35.346Z,4.30
2019-03-31T04:51:03.586Z,4.30
2019-03-31T04:53:31.810Z,4.40
2019-03-31T04:56:00.053Z,4.30
2019-03-31T04:58:28.279Z,4.40
2019-03-31T05:00:56.511Z,4.30
2019-03-31T05:03:24.752Z,4.20
2019-03-31T05:05:52.977Z,4.20
2019-03-31T05:08:21.212Z,4.10
2019-03-31T05:10:49.435Z,4.00
2019-03-31T05:13:17.662Z,4.10
2019-03-31T05:15:45.910Z,4.10
2019-03-31T05:18:14.137Z,4.20
2019-03-31T05:20:42.469Z,4.20
2019-03-31T05:23:10.821Z,4.20
2019-03-31T05:25:39.076Z,4.20
2019-03-31T05:28:07.322Z,4.30
2019-03-31T05:30:35.621Z,4.30
2019-03-31T05:33:03.926Z,4.20
2019-03-31T05:35:32.154Z,4.20
2019-03-31T05:38:00.369Z,4.10
2019-03-31T05:40:30.651Z,4.20
2019-03-31T05:42:58.570Z,4.10
2019-03-31T05:45:26.817Z,4.00
2019-03-31T05:47:55.058Z,4.00
2019-03-31T05:50:23.277Z,4.10
2019-03-31T05:52:51.526Z,4.20
2019-03-31T05:55:19.751Z,4.30
2019-03-31T05:57:47.987Z,4.50
2019-03-31T06:00:19.493Z,4.60
2019-03-31T06:02:47.725Z,4.70
2019-03-31T06:05:15.970Z,4.80
2019-03-31T06:07:44.191Z,4.90
2019-03-31T06:10:12.441Z,5.00
2019-03-31T06:12:40.672Z,5.10
2019-03-31T06:15:08.904Z,5.30
2019-03-31T06:17:37.152Z,5.30
2019-03-31T06:20:06.695Z,5.40
2019-03-31T06:22:34.941Z,5.50
2019-03-31T06:25:03.392Z,5.70
2019-03-31T06:27:31.709Z,5.90
2019-03-31T06:29:59.957Z,6.00
2019-03-31T06:32:28.183Z,6.20
2019-03-31T06:34:56.475Z,6.30
2019-03-31T06:37:24.715Z,6.50
2019-03-31T06:39:52.932Z,6.60
2019-03-31T06:42:21.251Z,6.80
2019-03-31T06:44:49.568Z,6.90
2019-03-31T06:47:17.820Z,7.00
2019-03-31T06:49:46.570Z,7.20
2019-03-31T06:52:14.861Z,7.30
2019-03-31T06:54:43.102Z,7.50
2019-03-31T06:57:11.339Z,7.60
2019-03-31T06:59:39.566Z,7.90
2019-03-31T07:02:07.789Z,8.20
2019-03-31T07:04:36.035Z,8.20
2019-03-31T07:07:04.254Z,8.30
2019-03-31T07:09:32.477Z,8.50
2019-03-31T07:12:00.713Z,8.60
2019-03-31T07:14:28.925Z,8.70
2019-03-31T07:16:57.150Z,8.90
2019-03-31T07:19:25.389Z,9.10
2019-03-31T07:21:53.629Z,9.20
2019-03-31T07:24:21.865Z,9.30
2019-03-31T07:26:50.120Z,9.50
2019-03-31T07:29:18.397Z,9.50
2019-03-31T07:31:46.625Z,9.70
2019-03-31T07:34:14.869Z,9.90
2019-03-31T07:36:43.340Z,10.00
2019-03-31T07:39:11.565Z,10.20
2019-03-31T07:41:40.222Z,10.40
2019-03-31T07:44:08.549Z,10.40
2019-03-31T07:46:36.774Z,10.60
2019-03-31T07:49:05.082Z,10.70
2019-03-31T07:51:33.353Z,10.80
2019-03-31T07:54:01.855Z,11.00
2019-03-31T07:56:30.082Z,11.20
2019-03-31T07:58:58.306Z,11.30
2019-03-31T08:01:26.561Z,11.40
2019-03-31T08:03:54.789Z,11.60
2019-03-31T08:06:23.024Z,11.80
2019-03-31T08:08:53.309Z,12.00
2019-03-31T08:11:21.400Z,12.00
2019-03-31T08:13:49.638Z,12.30
2019-03-31T08:16:17.873Z,12.30
2019-03-31T08:18:46.101Z,12.50
2019-03-31T08:21:14.349Z,12.70
2019-03-31T08:23:42.599Z,12.90
2019-03-31T08:26:10.848Z,12.70
2019-03-31T08:28:39.101Z,13.00
2019-03-31T08:31:07.321Z,13.20
2019-03-31T08:33:35.573Z,13.40
2019-03-31T08:36:03.801Z,13.50
2019-03-31T08:38:32.044Z,13.60
2019-03-31T08:41:00.282Z,13.80
2019-03-31T08:43:28.519Z,13.90
2019-03-31T08:45:56.757Z,14.00
2019-03-31T08:48:25.008Z,14.30
2019-03-31T08:50:53.245Z,14.30
2019-03-31T08:53:21.490Z,14.40
2019-03-31T08:55:49.732Z,14.40
2019-03-31T08:58:17.974Z,14.40
2019-03-31T09:00:47.842Z,14.70
2019-03-31T09:03:16.093Z,14.80
2019-03-31T09:05:44.325Z,15.20
2019-03-31T09:08:12.591Z,15.30
2019-03-31T09:10:40.865Z,15.30
2019-03-31T09:13:09.125Z,15.60
2019-03-31T09:15:37.353Z,15.60
2019-03-31T09:18:05.597Z,15.50
2019-03-31T09:20:33.889Z,15.80
2019-03-31T09:23:02.160Z,15.70
2019-03-31T09:25:30.411Z,16.00
2019-03-31T09:27:58.643Z,16.00
2019-03-31T09:30:26.896Z,15.90
2019-03-31T09:32:55.129Z,15.80
2019-03-31T09:35:23.364Z,15.70
2019-03-31T09:37:51.611Z,15.60
2019-03-31T09:40:19.836Z,15.70
2019-03-31T09:42:48.080Z,15.80
2019-03-31T09:45:16.354Z,16.10
2019-03-31T09:47:44.625Z,16.20
2019-03-31T09:50:16.981Z,16.30
2019-03-31T09:52:43.866Z,16.30
2019-03-31T09:55:12.102Z,16.40
2019-03-31T09:57:40.353Z,16.50
2019-03-31T10:00:36.738Z,16.60
2019-03-31T10:03:04.969Z,16.70
2019-03-31T10:05:33.214Z,16.50
2019-03-31T10:08:01.496Z,16.40
2019-03-31T10:10:31.291Z,16.50
2019-03-31T10:13:00.176Z,16.70
2019-03-31T10:15:28.456Z,16.70
2019-03-31T10:17:56.692Z,16.90
2019-03-31T10:20:24.934Z,16.90
2019-03-31T10:22:53.160Z,16.80
2019-03-31T10:25:21.399Z,16.80
2019-03-31T10:27:49.644Z,16.70
2019-03-31T10:30:34.400Z,16.80
2019-03-31T10:33:02.650Z,16.70
2019-03-31T10:35:30.876Z,16.80
2019-03-31T10:37:59.133Z,16.70
2019-03-31T10:40:27.368Z,16.90
2019-03-31T10:42:55.604Z,17.00
2019-03-31T10:45:23.840Z,17.30
2019-03-31T10:47:52.072Z,17.40
2019-03-31T10:50:20.366Z,17.60
2019-03-31T10:52:49.750Z,17.50
2019-03-31T10:55:17.980Z,17.50
2019-03-31T10:57:46.225Z,17.50
2019-03-31T11:00:14.472Z,17.40
2019-03-31T11:02:42.717Z,17.40
2019-03-31T11:05:10.957Z,17.40
2019-03-31T11:07:39.189Z,17.40
2019-03-31T11:10:07.437Z,17.50
2019-03-31T11:12:35.672Z,17.80
2019-03-31T11:15:05.038Z,17.90
2019-03-31T11:17:33.284Z,17.80
2019-03-31T11:20:01.525Z,17.60
2019-03-31T11:22:43.764Z,17.80
2019-03-31T11:25:20.680Z,17.80
2019-03-31T11:27:43.881Z,17.70
2019-03-31T11:30:11.953Z,17.80
2019-03-31T11:32:40.177Z,17.90
2019-03-31T11:35:08.427Z,17.90
2019-03-31T11:37:36.675Z,17.90
2019-03-31T11:40:06.645Z,17.90
2019-03-31T11:42:35.007Z,17.90
2019-03-31T11:45:04.589Z,17.70
2019-03-31T11:47:32.852Z,17.60
2019-03-31T11:50:01.104Z,17.60
2019-03-31T11:52:29.440Z,17.70
2019-03-31T11:54:57.790Z,17.70
2019-03-31T11:57:26.010Z,18.00
2019-03-31T11:59:54.237Z,18.20
2019-03-31T12:02:27.336Z,18.50
2019-03-31T12:04:53.801Z,18.40
2019-03-31T12:07:28.312Z,18.40
2019-03-31T12:09:53.650Z,18.40
2019-03-31T12:12:21.894Z,18.30
2019-03-31T12:15:00.261Z,18.40
2019-03-31T12:17:20.094Z,18.40
2019-03-31T12:19:48.943Z,18.50
2019-03-31T12:22:17.364Z,18.30
2019-03-31T12:24:45.608Z,18.50
2019-03-31T12:27:13.832Z,18.70
2019-03-31T12:29:42.065Z,18.70
2019-03-31T12:32:10.316Z,18.80
2019-03-31T12:34:38.586Z,18.90
2019-03-31T12:37:06.831Z,18.90
2019-03-31T12:39:36.175Z,18.80
2019-03-31T12:42:04.686Z,19.00
2019-03-31T12:44:32.924Z,19.10
2019-03-31T12:47:01.782Z,19.10
2019-03-31T12:49:30.079Z,19.00
2019-03-31T12:51:58.301Z,19.20
2019-03-31T12:54:26.593Z,19.30
2019-03-31T12:56:54.849Z,19.40
2019-03-31T12:59:23.077Z,19.20
2019-03-31T13:01:51.324Z,19.50
2019-03-31T13:04:19.576Z,19.40
2019-03-31T13:06:47.886Z,19.40
2019-03-31T13:09:16.116Z,19.50
2019-03-31T13:11:44.364Z,19.70
2019-03-31T13:14:12.625Z,19.60
2019-03-31T13:16:40.841Z,19.60
2019-03-31T13:19:09.085Z,19.80
2019-03-31T13:21:37.336Z,19.70
2019-03-31T13:24:05.570Z,19.70
2019-03-31T13:26:33.817Z,19.90
2019-03-31T13:29:02.045Z,20.20
2019-03-31T13:31:30.285Z,20.10
2019-03-31T13:33:58.550Z,20.10
2019-03-31T13:36:26.777Z,20.00
2019-03-31T13:38:55.026Z,20.20
2019-03-31T13:41:24.373Z,20.30
2019-03-31T13:43:52.605Z,20.40
2019-03-31T13:46:20.931Z,20.40
2019-03-31T13:48:49.171Z,20.30
2019-03-31T13:51:17.443Z,20.60
2019-03-31T13:53:45.672Z,21.50
2019-03-31T13:56:14.354Z,21.50
2019-03-31T13:58:42.925Z,21.50
2019-03-31T14:01:11.280Z,22.80
2019-03-31T14:03:39.589Z,23.50
2019-03-31T14:06:07.812Z,24.40
2019-03-31T14:08:36.041Z,25.10
2019-03-31T14:11:04.300Z,25.20
2019-03-31T14:13:32.534Z,25.00
2019-03-31T14:16:00.772Z,25.00
2019-03-31T14:18:29.007Z,24.90
2019-03-31T14:20:57.248Z,24.80
2019-03-31T14:23:25.484Z,24.90
2019-03-31T14:25:53.713Z,24.80
2019-03-31T14:28:21.964Z,25.10
2019-03-31T14:30:50.200Z,24.90
2019-03-31T14:33:18.449Z,25.70
2019-03-31T14:35:46.688Z,25.60
2019-03-31T14:38:14.926Z,25.20
2019-03-31T14:40:43.195Z,25.00
2019-03-31T14:43:11.461Z,25.40
2019-03-31T14:45:39.689Z,26.50
2019-03-31T14:48:07.934Z,26.50
2019-03-31T14:50:37.406Z,26.00
2019-03-31T14:53:05.651Z,25.90
2019-03-31T14:55:33.881Z,27.10
2019-03-31T14:58:02.119Z,26.60
2019-03-31T15:00:30.529Z,26.20
2019-03-31T15:02:58.764Z,26.00
2019-03-31T15:05:27.009Z,25.00
2019-03-31T15:07:58.307Z,24.40
2019-03-31T15:10:25.262Z,24.20
2019-03-31T15:12:53.501Z,24.60
2019-03-31T15:15:21.729Z,24.00
2019-03-31T15:17:49.983Z,24.90
2019-03-31T15:20:18.228Z,25.00
2019-03-31T15:22:46.469Z,25.20
2019-03-31T15:25:14.718Z,25.10
2019-03-31T15:27:43.543Z,24.90
2019-03-31T15:30:11.836Z,24.10
2019-03-31T15:32:40.069Z,24.20
2019-03-31T15:35:08.303Z,24.20
2019-03-31T15:37:36.587Z,24.60
2019-03-31T15:40:06.241Z,25.30
2019-03-31T15:42:34.564Z,25.00
2019-03-31T15:45:02.878Z,25.30
2019-03-31T15:47:31.129Z,24.70
2019-03-31T15:49:59.368Z,23.90
2019-03-31T15:52:27.597Z,23.80
2019-03-31T15:54:55.876Z,23.90
2019-03-31T15:57:24.185Z,23.50
2019-03-31T15:59:55.862Z,23.30
2019-03-31T16:02:25.746Z,23.40
2019-03-31T16:04:53.993Z,22.70
2019-03-31T16:07:22.241Z,22.30
2019-03-31T16:09:50.487Z,22.00
2019-03-31T16:12:18.717Z,22.20
2019-03-31T16:14:46.964Z,22.70
2019-03-31T16:17:15.212Z,22.20
2019-03-31T16:19:43.465Z,21.70
2019-03-31T16:22:11.719Z,21.50
2019-03-31T16:24:41.606Z,21.60
2019-03-31T16:27:09.866Z,21.40
2019-03-31T16:29:38.117Z,21.10
2019-03-31T16:32:06.361Z,21.00
2019-03-31T16:34:34.586Z,20.60
2019-03-31T16:37:02.847Z,19.90
2019-03-31T16:39:37.516Z,19.80
2019-03-31T16:42:01.046Z,19.80
2019-03-31T16:44:29.293Z,19.90
2019-03-31T16:46:57.520Z,19.70
2019-03-31T16:49:25.757Z,19.30
2019-03-31T16:51:54.080Z,19.00
2019-03-31T16:54:22.312Z,18.70
2019-03-31T16:56:50.561Z,18.40
2019-03-31T16:59:18.805Z,18.10
2019-03-31T17:01:47.040Z,18.00
2019-03-31T17:04:15.281Z,17.90
2019-03-31T17:06:43.520Z,17.70
2019-03-31T17:09:11.764Z,17.40
2019-03-31T17:11:39.993Z,17.20
2019-03-31T17:14:08.230Z,16.90
2019-03-31T17:16:36.488Z,16.70
2019-03-31T17:19:04.727Z,16.70
2019-03-31T17:21:32.978Z,16.40
2019-03-31T17:24:01.210Z,16.30
2019-03-31T17:26:29.445Z,16.20
2019-03-31T17:28:57.690Z,16.10
2019-03-31T17:31:25.951Z,16.00
2019-03-31T17:33:54.215Z,15.90
2019-03-31T17:36:25.557Z,15.80
2019-03-31T17:38:53.862Z,15.70
2019-03-31T17:41:22.184Z,15.60
2019-03-31T17:43:50.456Z,15.50
2019-03-31T17:46:18.699Z,15.40
2019-03-31T17:48:46.934Z,15.30
2019-03-31T17:51:16.803Z,15.20
2019-03-31T17:53:45.043Z,15.10
2019-03-31T17:56:13.312Z,15.00
2019-03-31T17:58:41.565Z,14.90
2019-03-31T18:01:09.793Z,14.90
2019-03-31T18:03:38.030Z,14.80
2019-03-31T18:06:06.296Z,14.80
2019-03-31T18:08:34.542Z,14.70
2019-03-31T18:11:04.603Z,14.60
2019-03-31T18:13:32.824Z,14.50
2019-03-31T18:16:01.064Z,14.40
2019-03-31T18:18:29.311Z,14.40
2019-03-31T18:20:57.576Z,14.30
2019-03-31T18:23:25.880Z,14.30
2019-03-31T18:25:54.258Z,14.30
2019-03-31T18:28:22.830Z,14.20
2019-03-31T18:30:51.807Z,14.10
2019-03-31T18:33:20.531Z,14.00
2019-03-31T18:35:50.014Z,13.90
2019-03-31T18:38:19.785Z,13.90
2019-03-31T18:40:49.838Z,13.80
2019-03-31T18:43:19.390Z,13.80
2019-03-31T18:45:49.105Z,13.80
2019-03-31T18:48:19.137Z,13.60
2019-03-31T18:50:48.944Z,13.60
2019-03-31T18:53:20.114Z,13.50
2019-03-31T18:56:07.690Z,13.50
2019-03-31T18:58:38.949Z,13.50
2019-03-31T19:01:22.540Z,13.50
2019-03-31T19:04:03.236Z,13.50
2019-03-31T19:06:34.794Z,13.40
2019-03-31T19:09:29.896Z,13.30
2019-03-31T19:12:20.084Z,13.30
2019-03-31T19:14:51.318Z,13.20
2019-03-31T19:17:28.618Z,13.10
2019-03-31T19:20:02.525Z,13.10
2019-03-31T19:22:39.666Z,13.10
2019-03-31T19:25:22.933Z,13.00
2019-03-31T19:27:56.946Z,12.90
2019-03-31T19:30:30.956Z,12.80
2019-03-31T19:33:17.980Z,12.70
2019-03-31T19:36:07.852Z,12.60
2019-03-31T19:38:56.225Z,12.60
2019-03-31T19:41:43.730Z,12.50
2019-03-31T19:44:24.119Z,12.40
2019-03-31T19:46:55.377Z,12.40
2019-03-31T19:49:32.837Z,12.30
2019-03-31T19:52:06.444Z,12.30
2019-03-31T19:54:53.546Z,12.20
2019-03-31T19:57:31.136Z,12.20
2019-03-31T20:00:18.870Z,12.10
2019-03-31T20:02:59.433Z,12.00
2019-03-31T20:05:42.489Z,11.80
2019-03-31T20:08:20.146Z,11.70
2019-03-31T20:10:51.346Z,11.50
2019-03-31T20:13:28.419Z,11.30
2019-03-31T20:16:02.898Z,11.20
2019-03-31T20:18:40.393Z,11.10
2019-03-31T20:21:31.419Z,11.10
2019-03-31T20:24:11.302Z,11.00
2019-03-31T20:26:42.590Z,10.90
2019-03-31T20:29:13.839Z,10.90
2019-03-31T20:31:57.679Z,10.80
2019-03-31T20:34:34.384Z,10.80
2019-03-31T20:37:22.289Z,10.80
2019-03-31T20:39:57.025Z,10.70
2019-03-31T20:42:27.714Z,10.60
2019-03-31T20:44:56.022Z,10.50
2019-03-31T20:47:24.310Z,10.40
2019-03-31T20:49:52.670Z,10.30
2019-03-31T20:52:20.976Z,10.20
2019-03-31T20:54:49.215Z,10.20
2019-03-31T20:57:17.465Z,10.10
2019-03-31T20:59:45.793Z,10.00
2019-03-31T21:02:14.229Z,9.90
2019-03-31T21:04:42.469Z,9.90
2019-03-31T21:07:10.702Z,9.80
2019-03-31T21:09:45.146Z,9.70
2019-03-31T21:12:08.883Z,9.70
2019-03-31T21:14:37.109Z,9.60
2019-03-31T21:17:05.347Z,9.60
2019-03-31T21:19:33.587Z,9.60
2019-03-31T21:22:01.816Z,9.50
2019-03-31T21:24:30.043Z,9.60
2019-03-31T21:26:58.285Z,9.50
2019-03-31T21:29:26.513Z,9.50
2019-03-31T21:31:54.780Z,9.40
2019-03-31T21:34:22.992Z,9.50
2019-03-31T21:36:51.233Z,9.50
2019-03-31T21:39:19.468Z,9.50
2019-03-31T21:41:47.697Z,9.60
2019-03-31T21:44:15.946Z,9.60
2019-03-31T21:46:44.198Z,9.70
2019-03-31T21:49:12.418Z,9.80
2019-03-31T21:51:40.661Z,10.10
2019-03-31T21:54:08.888Z,10.20
2019-03-31T21:56:37.130Z,10.20
2019-03-31T21:59:05.363Z,10.20
2019-03-31T22:01:33.592Z,10.20
2019-03-31T22:04:01.839Z,10.20
2019-03-31T22:06:30.101Z,10.20
2019-03-31T22:08:58.347Z,10.20
2019-03-31T22:11:26.568Z,10.30
2019-03-31T22:13:54.792Z,10.30
2019-03-31T22:16:25.785Z,10.20
2019-03-31T22:18:54.012Z,10.10
2019-03-31T22:21:22.257Z,10.00
2019-03-31T22:23:57.697Z,10.10
2019-03-31T22:26:20.495Z,10.00
2019-03-31T22:28:48.863Z,10.10
2019-03-31T22:31:17.246Z,10.00
2019-03-31T22:33:45.507Z,10.00
2019-03-31T22:36:23.349Z,10.00
2019-03-31T22:38:52.428Z,10.10
2019-03-31T22:41:20.749Z,10.00
2019-03-31T22:43:49.450Z,9.90
2019-03-31T22:46:18.038Z,9.90
2019-03-31T22:48:46.265Z,9.80
2019-03-31T22:51:14.496Z,9.80
2019-03-31T22:53:42.722Z,9.80
2019-03-31T22:56:10.958Z,9.80
2019-03-31T22:58:39.197Z,9.80
2019-03-31T23:01:07.505Z,9.70
2019-03-31T23:03:35.741Z,9.70
2019-03-31T23:06:03.966Z,9.60
2019-03-31T23:08:32.203Z,9.60
2019-03-31T23:11:00.429Z,9.50
2019-03-31T23:13:28.659Z,9.50
2019-03-31T23:15:56.907Z,9.40
2019-03-31T23:18:25.132Z,9.40
2019-03-31T23:20:53.357Z,9.40
2019-03-31T23:23:21.597Z,9.40
2019-03-31T23:25:49.820Z,9.40
2019-03-31T23:28:18.060Z,9.30
2019-03-31T23:30:46.290Z,9.40
2019-03-31T23:33:14.516Z,9.40
2019-03-31T23:35:42.752Z,9.20
2019-03-31T23:38:10.977Z,9.20
2019-03-31T23:40:39.210Z,9.20
2019-03-31T23:43:07.442Z,9.20
2019-03-31T23:45:35.665Z,9.20
2019-03-31T23:48:03.907Z,9.10
2019-03-31T23:50:32.131Z,9.10
2019-03-31T23:53:00.385Z,9.10
2019-03-31T23:55:28.610Z,9.00
2019-03-31T23:57:56.840Z,9.00
